Time;durP1;ratioP1;P1;durP2;ratioP2;P2;SDS_P1;SDS_P2;PMS_P1;PMS_P2;Temp;Humidity;BMP_temperature;BMP_pressure;BME280_temperature;BME280_humidity;BME280_pressure;Samples;Min_cycle;Max_cycle;Signal;HPM_P1;HPM_P2
2022/07/01 00:01:40;;;;;;;5.15;1.50;;;15.90;99.90;;;;;;5016582;28;20354;-59
2022/07/01 00:04:07;;;;;;;6.05;1.25;;;15.90;99.90;;;;;;5018409;28;20077;-59
2022/07/01 00:06:33;;;;;;;4.88;1.75;;;15.80;99.90;;;;;;5027788;28;20747;-59
2022/07/01 00:08:59;;;;;;;3.63;1.20;;;15.80;99.90;;;;;;5018722;28;20084;-59
2022/07/01 00:11:25;;;;;;;6.80;1.20;;;15.80;99.90;;;;;;5020898;28;20053;-59
2022/07/01 00:13:51;;;;;;;3.03;1.33;;;15.80;99.90;;;;;;5019430;28;20056;-59
2022/07/01 00:16:17;;;;;;;3.95;1.33;;;15.90;99.90;;;;;;5024315;28;20044;-58
2022/07/01 00:18:43;;;;;;;2.67;1.23;;;15.80;99.90;;;;;;5013262;28;20551;-59
2022/07/01 00:21:09;;;;;;;3.42;1.20;;;15.90;99.90;;;;;;5022606;28;20056;-59
2022/07/01 00:23:36;;;;;;;2.83;1.10;;;15.90;99.90;;;;;;5020156;28;20045;-59
2022/07/01 00:26:02;;;;;;;3.97;1.35;;;15.90;99.90;;;;;;5020259;28;20130;-60
2022/07/01 00:28:28;;;;;;;4.78;1.30;;;15.90;99.90;;;;;;5023534;28;20049;-59
2022/07/01 00:30:53;;;;;;;4.18;1.35;;;15.90;99.90;;;;;;5019478;28;20500;-59
2022/07/01 00:33:19;;;;;;;4.03;1.48;;;15.90;99.90;;;;;;5014369;28;20057;-59
2022/07/01 00:35:45;;;;;;;3.47;1.10;;;15.90;99.90;;;;;;5017829;28;20091;-59
2022/07/01 00:38:10;;;;;;;3.78;1.40;;;15.90;99.90;;;;;;5020764;28;20079;-60
2022/07/01 00:40:36;;;;;;;2.92;1.17;;;15.90;99.90;;;;;;5019492;28;20054;-60
2022/07/01 00:43:03;;;;;;;3.53;1.20;;;15.90;99.90;;;;;;5024269;28;20124;-59
2022/07/01 00:45:28;;;;;;;3.65;1.10;;;15.90;99.90;;;;;;5019451;28;20037;-59
2022/07/01 00:47:55;;;;;;;2.83;1.58;;;15.90;99.90;;;;;;5024577;28;20045;-59
2022/07/01 00:50:20;;;;;;;3.65;1.63;;;15.90;99.90;;;;;;5021228;28;20045;-60
2022/07/01 00:52:46;;;;;;;4.72;1.60;;;15.90;99.90;;;;;;5020444;28;20071;-60
2022/07/01 00:55:13;;;;;;;4.95;1.42;;;15.90;99.90;;;;;;5017346;28;20049;-60
2022/07/01 00:57:41;;;;;;;6.10;2.13;;;15.90;99.90;;;;;;5021474;28;20128;-60
2022/07/01 01:00:11;;;;;;;2.25;1.30;;;15.90;99.90;;;;;;5021733;28;20048;-60
2022/07/01 01:02:37;;;;;;;1.63;1.10;;;15.90;99.90;;;;;;5016932;28;20515;-59
2022/07/01 01:05:08;;;;;;;2.50;1.20;;;15.90;99.90;;;;;;5020140;28;20131;-60
2022/07/01 01:07:34;;;;;;;3.72;1.02;;;15.90;99.90;;;;;;5015272;28;20076;-59
2022/07/01 01:10:01;;;;;;;2.75;1.10;;;15.90;99.90;;;;;;5018665;28;20046;-58
2022/07/01 01:12:28;;;;;;;3.35;1.50;;;15.90;99.90;;;;;;5031293;28;20436;-59
2022/07/01 01:14:57;;;;;;;7.05;1.80;;;15.90;99.90;;;;;;5019864;28;20403;-58
2022/07/01 01:17:23;;;;;;;4.13;1.60;;;15.90;99.90;;;;;;5019229;28;20487;-60
2022/07/01 01:19:50;;;;;;;5.15;1.92;;;15.90;99.90;;;;;;5020684;28;20037;-59
2022/07/01 01:22:18;;;;;;;1.60;1.50;;;15.80;99.90;;;;;;5011176;28;20045;-59
2022/07/01 01:24:45;;;;;;;3.55;1.30;;;15.90;99.90;;;;;;5016660;28;20128;-58
2022/07/01 01:27:12;;;;;;;3.13;1.30;;;15.80;99.90;;;;;;5022177;28;20095;-59
2022/07/01 01:29:38;;;;;;;5.05;1.38;;;15.80;99.90;;;;;;5024581;28;20081;-59
2022/07/01 01:32:06;;;;;;;4.30;1.45;;;15.80;99.90;;;;;;5020620;28;20065;-60
2022/07/01 01:34:33;;;;;;;1.40;1.30;;;15.80;99.90;;;;;;5017970;28;20095;-59
2022/07/01 01:36:59;;;;;;;2.65;1.42;;;15.80;99.90;;;;;;5021515;28;20048;-60
2022/07/01 01:39:25;;;;;;;1.95;1.42;;;15.80;99.90;;;;;;5017484;28;20047;-59
2022/07/01 01:41:51;;;;;;;2.47;1.73;;;15.70;99.90;;;;;;5024603;28;20495;-59
2022/07/01 01:44:18;;;;;;;2.70;1.50;;;15.80;99.90;;;;;;5018589;28;20711;-59
2022/07/01 01:46:44;;;;;;;2.25;1.40;;;15.70;99.90;;;;;;5018396;28;20184;-59
2022/07/01 01:49:10;;;;;;;4.03;1.80;;;15.70;99.90;;;;;;5002586;28;20539;-59
2022/07/01 01:51:37;;;;;;;3.58;1.58;;;15.70;99.90;;;;;;5013986;28;21224;-59
2022/07/01 01:54:03;;;;;;;4.45;1.70;;;15.70;99.90;;;;;;5009039;28;20041;-60
2022/07/01 01:56:29;;;;;;;4.65;1.42;;;15.60;99.90;;;;;;5014798;28;20107;-59
2022/07/01 01:58:56;;;;;;;3.00;1.58;;;15.60;99.90;;;;;;5010928;28;20114;-60
2022/07/01 02:01:22;;;;;;;3.33;1.83;;;15.60;99.90;;;;;;5015160;28;20130;-60
2022/07/01 02:03:50;;;;;;;3.15;1.48;;;15.60;99.90;;;;;;5012274;28;20050;-60
2022/07/01 02:06:17;;;;;;;1.73;1.50;;;15.60;99.90;;;;;;5014961;28;20053;-60
2022/07/01 02:08:43;;;;;;;2.13;1.27;;;15.60;99.90;;;;;;5013113;28;21038;-59
2022/07/01 02:11:09;;;;;;;2.60;1.92;;;15.60;99.90;;;;;;5017098;28;20076;-59
2022/07/01 02:13:36;;;;;;;2.38;1.50;;;15.60;99.90;;;;;;5006799;28;20045;-59
2022/07/01 02:16:02;;;;;;;2.55;1.52;;;15.60;99.90;;;;;;5011400;28;20556;-60
2022/07/01 02:18:28;;;;;;;3.65;1.63;;;15.60;99.90;;;;;;5010191;28;20056;-59
2022/07/01 02:20:54;;;;;;;4.00;1.40;;;15.60;99.90;;;;;;5017890;28;20388;-59
2022/07/01 02:23:21;;;;;;;2.80;1.70;;;15.60;99.90;;;;;;5011996;28;20178;-59
2022/07/01 02:25:48;;;;;;;4.90;1.80;;;15.60;99.90;;;;;;5015349;28;20077;-59
2022/07/01 02:28:13;;;;;;;2.75;1.42;;;15.60;99.90;;;;;;5011421;28;20145;-59
2022/07/01 02:30:41;;;;;;;4.45;1.50;;;15.60;99.90;;;;;;5011030;28;20054;-59
2022/07/01 02:33:07;;;;;;;3.08;1.40;;;15.60;99.90;;;;;;5011409;28;20053;-60
2022/07/01 02:35:34;;;;;;;6.45;1.55;;;15.60;99.90;;;;;;5013252;28;20050;-60
2022/07/01 02:38:00;;;;;;;3.35;1.50;;;15.60;99.90;;;;;;5015264;28;20042;-60
2022/07/01 02:40:27;;;;;;;3.83;1.50;;;15.60;99.90;;;;;;5013938;28;20042;-60
2022/07/01 02:42:52;;;;;;;2.45;1.45;;;15.50;99.90;;;;;;5008569;28;20045;-60
2022/07/01 02:45:18;;;;;;;1.70;1.42;;;15.50;99.90;;;;;;5014857;28;20057;-60
2022/07/01 02:47:47;;;;;;;3.25;1.40;;;15.50;99.90;;;;;;5013115;28;20045;-59
2022/07/01 02:50:14;;;;;;;1.70;1.60;;;15.50;99.90;;;;;;5015940;28;20049;-60
2022/07/01 02:52:41;;;;;;;2.08;1.60;;;15.50;99.90;;;;;;5015029;28;20038;-59
2022/07/01 02:55:10;;;;;;;4.53;1.75;;;15.50;99.90;;;;;;5013600;28;20856;-59
2022/07/01 02:57:37;;;;;;;5.72;2.30;;;15.40;99.90;;;;;;5013855;28;20041;-60
2022/07/01 03:00:08;;;;;;;7.35;1.95;;;15.50;99.90;;;;;;5013082;28;20115;-60
2022/07/01 03:02:34;;;;;;;2.90;1.75;;;15.40;99.90;;;;;;5016353;28;20111;-60
2022/07/01 03:05:00;;;;;;;4.15;1.90;;;15.40;99.90;;;;;;5003074;28;20049;-60
2022/07/01 03:07:26;;;;;;;3.50;2.10;;;15.40;99.90;;;;;;5015535;28;20049;-59
2022/07/01 03:09:52;;;;;;;6.68;2.17;;;15.40;99.90;;;;;;5014635;28;20053;-59
2022/07/01 03:12:24;;;;;;;3.17;1.98;;;15.30;99.90;;;;;;4996639;28;20049;-59
2022/07/01 03:14:55;;;;;;;3.33;2.20;;;15.30;99.90;;;;;;5008529;28;20053;-59
2022/07/01 03:17:21;;;;;;;4.00;2.03;;;15.30;99.90;;;;;;5006225;28;20140;-60
2022/07/01 03:19:47;;;;;;;5.68;2.70;;;15.30;99.90;;;;;;5015304;28;20033;-59
2022/07/01 03:22:13;;;;;;;3.33;2.05;;;15.30;99.90;;;;;;5015584;28;20052;-60
2022/07/01 03:24:39;;;;;;;4.60;2.03;;;15.30;99.90;;;;;;5009569;28;20052;-59
2022/07/01 03:27:05;;;;;;;2.88;2.10;;;15.20;99.90;;;;;;5009325;28;20488;-60
2022/07/01 03:29:31;;;;;;;4.38;2.25;;;15.20;99.90;;;;;;5010901;28;20053;-60
2022/07/01 03:31:56;;;;;;;4.28;2.35;;;15.20;99.90;;;;;;5013695;28;20136;-59
2022/07/01 03:34:22;;;;;;;3.53;2.30;;;15.20;99.90;;;;;;5011700;28;20517;-59
2022/07/01 03:36:48;;;;;;;2.50;2.00;;;15.20;99.90;;;;;;5012226;28;20046;-59
2022/07/01 03:39:14;;;;;;;2.92;2.33;;;15.20;99.90;;;;;;5001773;28;20570;-59
2022/07/01 03:41:40;;;;;;;6.75;2.78;;;15.20;99.90;;;;;;5011577;28;20077;-60
2022/07/01 03:44:05;;;;;;;4.70;2.40;;;15.20;99.90;;;;;;5013999;28;20049;-60
2022/07/01 03:46:32;;;;;;;5.22;2.30;;;15.20;99.90;;;;;;4994530;28;20089;-60
2022/07/01 03:48:58;;;;;;;5.22;2.33;;;15.20;99.90;;;;;;5027398;28;20049;-60
2022/07/01 03:51:24;;;;;;;5.63;2.60;;;15.20;99.90;;;;;;5027313;28;20829;-60
2022/07/01 03:56:35;;;;;;;2.80;2.30;;;15.20;99.90;;;;;;5016893;28;20047;-59
2022/07/01 03:59:01;;;;;;;4.97;2.67;;;15.30;99.90;;;;;;4987582;28;20042;-59
2022/07/01 04:01:27;;;;;;;5.00;2.80;;;15.20;99.90;;;;;;5011446;28;21657;-59
2022/07/01 04:03:52;;;;;;;4.20;2.83;;;15.20;99.90;;;;;;5005519;28;20049;-59
2022/07/01 04:06:19;;;;;;;4.30;3.20;;;15.30;99.90;;;;;;5013264;28;20119;-59
2022/07/01 04:08:46;;;;;;;4.38;3.13;;;15.30;99.90;;;;;;5010182;28;21280;-60
2022/07/01 04:11:12;;;;;;;5.63;2.97;;;15.30;99.90;;;;;;5016144;28;20053;-59
2022/07/01 04:13:39;;;;;;;4.18;2.95;;;15.30;99.90;;;;;;5009509;28;20543;-59
2022/07/01 04:16:05;;;;;;;5.32;3.20;;;15.30;99.90;;;;;;5015103;28;20058;-59
2022/07/01 04:18:32;;;;;;;6.55;3.17;;;15.30;99.90;;;;;;5010027;28;20041;-59
2022/07/01 04:23:43;;;;;;;5.03;3.50;;;15.30;99.90;;;;;;5011055;28;20140;-59
2022/07/01 04:26:09;;;;;;;7.90;3.25;;;15.30;99.90;;;;;;5015705;28;20052;-60
2022/07/01 04:28:35;;;;;;;5.28;3.33;;;15.40;99.90;;;;;;5016091;28;20046;-59
2022/07/01 04:31:00;;;;;;;6.15;3.00;;;15.40;99.90;;;;;;5013919;28;20073;-59
2022/07/01 04:33:26;;;;;;;8.23;3.60;;;15.40;99.90;;;;;;5013712;28;20111;-59
2022/07/01 04:35:52;;;;;;;6.63;3.40;;;15.40;99.90;;;;;;5015963;28;20049;-60
2022/07/01 04:38:18;;;;;;;3.88;3.25;;;15.40;99.90;;;;;;5010164;28;20048;-59
2022/07/01 04:41:58;;;;;;;7.18;3.63;;;15.40;99.90;;;;;;5012460;28;20045;-59
2022/07/01 04:43:29;;;;;;;5.70;3.33;;;15.40;99.90;;;;;;5009663;28;20045;-59
2022/07/01 04:45:55;;;;;;;7.45;4.00;;;15.40;99.90;;;;;;5016486;28;20059;-59
2022/07/01 04:48:21;;;;;;;5.45;3.53;;;15.40;99.90;;;;;;5014147;28;20041;-59
2022/07/01 04:50:47;;;;;;;9.52;4.18;;;15.40;99.90;;;;;;5019768;28;20049;-60
2022/07/01 04:53:14;;;;;;;8.48;4.20;;;15.40;99.90;;;;;;5017185;28;20118;-58
2022/07/01 04:55:39;;;;;;;6.85;4.03;;;15.40;99.90;;;;;;5019906;28;20084;-59
2022/07/01 04:58:05;;;;;;;9.23;4.57;;;15.50;99.90;;;;;;5015709;28;20045;-59
2022/07/01 05:00:31;;;;;;;9.10;4.68;;;15.40;99.90;;;;;;5016924;28;20094;-59
2022/07/01 05:02:57;;;;;;;9.80;4.50;;;15.50;99.90;;;;;;5014082;28;20049;-59
2022/07/01 05:05:23;;;;;;;8.15;4.32;;;15.50;99.90;;;;;;5013109;28;20045;-59
2022/07/01 05:07:49;;;;;;;5.18;4.43;;;15.50;99.90;;;;;;5014895;28;20053;-59
2022/07/01 05:10:15;;;;;;;7.78;4.75;;;15.50;99.90;;;;;;5017600;28;20052;-59
2022/07/01 05:12:40;;;;;;;8.43;4.85;;;15.50;99.90;;;;;;5018140;28;20183;-59
2022/07/01 05:15:08;;;;;;;13.02;5.88;;;15.40;99.90;;;;;;5016704;28;20514;-59
2022/07/01 05:23:03;;;;;;;9.77;5.78;;;15.50;99.90;;;;;;5030201;28;20095;-59
2022/07/01 05:25:29;;;;;;;14.40;6.57;;;15.40;99.90;;;;;;5013314;28;20049;-60
2022/07/01 05:27:55;;;;;;;7.82;6.57;;;15.40;99.90;;;;;;5017779;28;20046;-59
2022/07/01 05:30:21;;;;;;;14.48;7.25;;;15.50;99.90;;;;;;5012180;28;20059;-59
2022/07/01 05:32:47;;;;;;;10.82;7.40;;;15.40;99.90;;;;;;5002409;28;20172;-59
2022/07/01 05:35:14;;;;;;;15.00;7.70;;;15.50;99.90;;;;;;5011280;28;20084;-59
2022/07/01 05:37:40;;;;;;;16.70;8.70;;;15.50;99.90;;;;;;5015250;28;20578;-60
2022/07/01 05:40:07;;;;;;;14.43;9.25;;;15.50;99.90;;;;;;5003502;28;20474;-60
2022/07/01 05:42:33;;;;;;;16.42;10.27;;;15.50;99.90;;;;;;5012716;28;20131;-59
2022/07/01 05:44:59;;;;;;;15.63;10.00;;;15.60;99.90;;;;;;5012797;28;20496;-59
2022/07/01 05:47:25;;;;;;;16.58;11.40;;;15.60;99.90;;;;;;5013501;28;20067;-59
2022/07/01 05:49:50;;;;;;;13.88;10.18;;;15.60;99.90;;;;;;5015678;28;20042;-59
2022/07/01 05:52:16;;;;;;;15.88;11.63;;;15.60;99.90;;;;;;5010919;28;20057;-59
2022/07/01 05:54:42;;;;;;;14.65;10.88;;;15.70;99.90;;;;;;5011530;28;20045;-59
2022/07/01 05:57:09;;;;;;;18.40;13.32;;;15.70;99.90;;;;;;5015919;28;20124;-59
2022/07/01 05:59:35;;;;;;;18.42;12.63;;;15.70;99.90;;;;;;5018098;28;20041;-59
2022/07/01 06:02:01;;;;;;;19.08;12.20;;;15.80;99.90;;;;;;5009590;28;20162;-59
2022/07/01 06:04:27;;;;;;;19.52;13.07;;;15.80;99.90;;;;;;5015222;28;20053;-59
2022/07/01 06:06:53;;;;;;;18.10;13.50;;;15.80;99.90;;;;;;5018488;28;20042;-58
2022/07/01 06:09:19;;;;;;;16.83;12.30;;;15.90;99.90;;;;;;5024467;28;20648;-59
2022/07/01 06:11:45;;;;;;;18.75;13.98;;;15.90;99.90;;;;;;5008573;28;20076;-59
2022/07/01 06:14:12;;;;;;;17.38;13.07;;;16.00;99.90;;;;;;5009980;28;20480;-59
2022/07/01 06:16:37;;;;;;;17.67;13.75;;;16.10;99.90;;;;;;5019164;28;20061;-59
2022/07/01 06:19:04;;;;;;;18.00;12.95;;;16.10;99.90;;;;;;5009020;28;20116;-63
2022/07/01 06:21:30;;;;;;;22.45;13.32;;;16.20;99.90;;;;;;4994176;28;20360;-63
2022/07/01 06:23:56;;;;;;;17.40;13.75;;;16.20;99.90;;;;;;5015730;28;20053;-63
2022/07/01 06:26:22;;;;;;;18.45;13.98;;;16.30;99.90;;;;;;5011526;28;20502;-63
2022/07/01 06:28:48;;;;;;;18.95;14.05;;;16.40;99.90;;;;;;5018087;28;20648;-63
2022/07/01 06:31:14;;;;;;;20.67;14.27;;;16.40;99.90;;;;;;5015965;28;20057;-64
2022/07/01 06:33:40;;;;;;;19.85;14.63;;;16.40;99.90;;;;;;5019113;28;20134;-64
2022/07/01 06:36:06;;;;;;;19.25;11.82;;;16.50;99.90;;;;;;5011607;28;20051;-64
2022/07/01 06:38:32;;;;;;;19.02;13.35;;;16.50;99.90;;;;;;5019184;28;20377;-63
2022/07/01 06:43:43;;;;;;;20.75;14.43;;;16.50;99.90;;;;;;5014786;28;20848;-63
2022/07/01 06:46:09;;;;;;;22.17;13.57;;;16.60;99.90;;;;;;5008348;28;20049;-63
2022/07/01 06:48:36;;;;;;;20.92;14.10;;;16.70;99.90;;;;;;5006826;28;20107;-63
2022/07/01 06:51:02;;;;;;;21.40;13.82;;;16.70;99.90;;;;;;5017872;28;20077;-63
2022/07/01 06:53:28;;;;;;;21.40;15.23;;;16.80;99.90;;;;;;4998620;28;20049;-63
2022/07/01 06:55:54;;;;;;;18.95;12.68;;;16.80;99.90;;;;;;5005860;28;20061;-63
2022/07/01 06:58:20;;;;;;;20.88;13.50;;;16.80;99.90;;;;;;4999915;28;20495;-63
2022/07/01 07:00:46;;;;;;;21.40;13.50;;;16.80;99.90;;;;;;4966665;28;20125;-62
2022/07/01 07:03:12;;;;;;;21.75;14.68;;;16.90;99.90;;;;;;4998062;28;20385;-63
2022/07/01 07:05:38;;;;;;;23.65;15.48;;;16.90;99.90;;;;;;4987544;28;20053;-63
2022/07/01 07:08:04;;;;;;;30.25;15.40;;;16.90;99.90;;;;;;5002126;28;20067;-64
2022/07/01 07:10:30;;;;;;;26.42;15.68;;;16.90;99.90;;;;;;5015338;28;20049;-63
2022/07/01 07:12:56;;;;;;;18.38;13.45;;;16.90;99.90;;;;;;5018808;28;20119;-63
2022/07/01 07:15:22;;;;;;;20.60;14.45;;;16.90;99.90;;;;;;5010543;28;20045;-63
2022/07/01 07:17:47;;;;;;;22.73;14.45;;;16.90;99.90;;;;;;5012443;28;20499;-63
2022/07/01 07:20:13;;;;;;;22.08;14.85;;;17.00;99.90;;;;;;5002665;28;20041;-63
2022/07/01 07:22:39;;;;;;;21.48;14.43;;;17.10;99.90;;;;;;5009173;28;20127;-63
2022/07/01 07:25:05;;;;;;;16.65;13.48;;;17.10;99.90;;;;;;5006808;28;20045;-63
2022/07/01 07:27:31;;;;;;;19.83;13.30;;;17.10;99.90;;;;;;5008184;28;20048;-64
2022/07/01 07:29:57;;;;;;;21.88;13.75;;;17.10;99.90;;;;;;5004632;28;20049;-64
2022/07/01 07:32:23;;;;;;;22.75;15.60;;;17.10;99.90;;;;;;5001716;28;20053;-64
2022/07/01 07:34:48;;;;;;;18.77;14.13;;;17.10;99.90;;;;;;4992148;28;20112;-63
2022/07/01 07:37:14;;;;;;;21.50;14.77;;;17.20;99.90;;;;;;5006736;28;20057;-64
2022/07/01 07:39:40;;;;;;;20.40;15.20;;;17.20;99.90;;;;;;5008427;28;20404;-63
2022/07/01 07:42:06;;;;;;;24.10;16.40;;;17.20;99.90;;;;;;5008106;28;20487;-64
2022/07/01 07:44:32;;;;;;;22.92;16.70;;;17.30;99.90;;;;;;5001645;28;20041;-63
2022/07/01 07:46:58;;;;;;;25.08;16.90;;;17.40;99.90;;;;;;5005685;28;20049;-63
2022/07/01 07:49:24;;;;;;;25.48;16.52;;;17.40;99.90;;;;;;5006118;28;20518;-63
2022/07/01 07:51:51;;;;;;;19.33;16.63;;;17.40;99.90;;;;;;5011024;28;20115;-63
2022/07/01 07:54:17;;;;;;;23.98;16.90;;;17.40;99.90;;;;;;4995966;28;20134;-64
2022/07/01 07:56:43;;;;;;;22.60;16.42;;;17.40;99.90;;;;;;5008258;28;20053;-63
2022/07/01 07:59:09;;;;;;;18.92;15.82;;;17.50;99.90;;;;;;5010248;28;20084;-63
2022/07/01 08:01:35;;;;;;;19.67;16.00;;;17.50;99.90;;;;;;5010903;28;20049;-63
2022/07/01 08:04:01;;;;;;;21.67;15.35;;;17.50;99.90;;;;;;5004922;28;20045;-63
2022/07/01 08:06:28;;;;;;;22.73;15.45;;;17.50;99.90;;;;;;4986495;28;20437;-63
2022/07/01 08:08:55;;;;;;;25.70;15.15;;;17.60;99.90;;;;;;5023714;28;20531;-64
2022/07/01 08:11:20;;;;;;;22.20;14.10;;;17.60;99.90;;;;;;4992140;28;20049;-63
2022/07/01 08:13:46;;;;;;;18.02;13.95;;;17.70;99.90;;;;;;5004326;28;20140;-63
2022/07/01 08:16:12;;;;;;;20.17;15.02;;;17.70;99.90;;;;;;5004649;28;20115;-63
2022/07/01 08:18:38;;;;;;;22.38;15.20;;;17.90;99.90;;;;;;5014079;28;20430;-63
2022/07/01 08:21:04;;;;;;;18.05;14.85;;;18.00;99.90;;;;;;5000969;28;20049;-63
2022/07/01 08:23:30;;;;;;;22.65;15.18;;;18.10;99.90;;;;;;5008341;28;20116;-63
2022/07/01 08:25:56;;;;;;;17.60;13.18;;;18.10;99.90;;;;;;5017172;28;20085;-63
2022/07/01 08:28:22;;;;;;;20.65;13.07;;;18.20;99.90;;;;;;5023432;28;20145;-63
2022/07/01 08:30:48;;;;;;;16.38;12.10;;;18.20;99.90;;;;;;5006720;28;20140;-63
2022/07/01 08:33:14;;;;;;;18.17;11.98;;;18.30;99.90;;;;;;5013124;28;20045;-63
2022/07/01 08:35:40;;;;;;;18.67;10.60;;;18.30;99.90;;;;;;5011458;28;20749;-63
2022/07/01 08:38:06;;;;;;;15.27;10.57;;;18.30;99.90;;;;;;5013916;28;20047;-63
2022/07/01 08:40:32;;;;;;;17.33;9.13;;;18.40;99.90;;;;;;5013904;28;20046;-64
2022/07/01 08:43:00;;;;;;;14.05;9.15;;;18.50;99.90;;;;;;5014876;28;20041;-63
2022/07/01 08:45:28;;;;;;;10.80;7.72;;;18.60;99.90;;;;;;5014293;28;22608;-64
2022/07/01 08:47:57;;;;;;;15.57;7.70;;;18.80;99.90;;;;;;5011559;28;20045;-63
2022/07/01 08:50:25;;;;;;;13.82;7.80;;;18.90;99.90;;;;;;5015869;28;20125;-63
2022/07/01 08:52:51;;;;;;;14.45;8.45;;;19.00;99.90;;;;;;5013658;28;20479;-63
2022/07/01 08:55:18;;;;;;;13.38;8.18;;;18.90;99.90;;;;;;4995645;28;20455;-63
2022/07/01 08:57:44;;;;;;;11.95;6.60;;;19.00;99.90;;;;;;5014924;28;20406;-63
2022/07/01 09:00:10;;;;;;;11.88;7.00;;;19.20;99.90;;;;;;4994328;28;20053;-63
2022/07/01 09:02:57;;;;;;;10.85;6.45;;;19.40;99.90;;;;;;5009358;28;20046;-64
2022/07/01 09:05:25;;;;;;;15.98;5.90;;;19.60;99.90;;;;;;5016547;28;20451;-63
2022/07/01 09:08:03;;;;;;;16.88;6.25;;;19.70;99.90;;;;;;5009921;28;20123;-63
2022/07/01 09:10:34;;;;;;;12.93;5.43;;;19.80;99.90;;;;;;5015124;28;20410;-63
2022/07/01 09:13:08;;;;;;;11.18;6.45;;;19.90;99.90;;;;;;5011854;28;20624;-63
2022/07/01 09:15:35;;;;;;;14.32;6.75;;;20.00;99.90;;;;;;5001338;28;20061;-64
2022/07/01 09:18:06;;;;;;;9.63;4.93;;;20.10;99.90;;;;;;4996999;28;21085;-64
2022/07/01 09:20:35;;;;;;;10.90;5.45;;;20.20;99.90;;;;;;5013108;28;20045;-63
2022/07/01 09:23:12;;;;;;;9.65;5.25;;;20.30;99.90;;;;;;5015737;28;20077;-63
2022/07/01 09:25:51;;;;;;;11.50;5.60;;;20.30;99.90;;;;;;4991855;28;20053;-64
2022/07/01 09:28:19;;;;;;;6.70;4.40;;;20.30;99.90;;;;;;4989396;28;20049;-63
2022/07/01 09:30:47;;;;;;;10.57;4.65;;;20.30;99.90;;;;;;5008344;28;20048;-63
2022/07/01 09:33:28;;;;;;;10.48;5.30;;;20.30;99.90;;;;;;5011620;28;20053;-64
2022/07/01 09:35:56;;;;;;;7.57;5.53;;;20.30;99.90;;;;;;5013402;28;20073;-63
2022/07/01 09:38:24;;;;;;;10.35;5.10;;;20.30;99.90;;;;;;5015800;28;20057;-63
2022/07/01 09:40:53;;;;;;;11.20;5.68;;;20.50;99.90;;;;;;5012358;28;20108;-64
2022/07/01 09:43:22;;;;;;;10.60;5.00;;;20.60;99.90;;;;;;4998365;28;20096;-63
2022/07/01 09:45:58;;;;;;;6.57;3.13;;;20.60;99.90;;;;;;5010550;28;20057;-63
2022/07/01 09:48:27;;;;;;;5.75;3.00;;;20.60;99.90;;;;;;5010497;28;20490;-63
2022/07/01 09:50:53;;;;;;;8.48;2.75;;;20.60;99.90;;;;;;4985006;28;20053;-64
2022/07/01 09:53:20;;;;;;;4.35;1.92;;;20.60;99.80;;;;;;5004856;28;20041;-63
2022/07/01 09:55:46;;;;;;;6.15;2.38;;;20.60;99.50;;;;;;4992333;28;20443;-64
2022/07/01 09:58:12;;;;;;;7.40;2.20;;;20.60;99.00;;;;;;5011082;28;20056;-64
2022/07/01 10:00:39;;;;;;;5.95;2.55;;;20.60;98.90;;;;;;5015075;28;20067;-64
2022/07/01 10:03:06;;;;;;;5.97;2.70;;;20.60;98.70;;;;;;4963717;28;20076;-63
2022/07/01 10:05:38;;;;;;;6.55;3.00;;;20.70;98.50;;;;;;5009239;28;20050;-63
2022/07/01 10:08:10;;;;;;;9.13;2.90;;;20.80;98.50;;;;;;5019989;28;20045;-63
2022/07/01 10:10:50;;;;;;;5.03;2.47;;;20.90;98.10;;;;;;5019509;28;20524;-64
2022/07/01 10:13:24;;;;;;;6.38;2.30;;;20.90;98.00;;;;;;5010914;28;20310;-64
2022/07/01 10:15:52;;;;;;;6.85;3.10;;;21.00;98.00;;;;;;5012762;28;20503;-64
2022/07/01 10:18:22;;;;;;;6.18;2.75;;;21.20;98.20;;;;;;5016420;28;20310;-64
2022/07/01 10:20:49;;;;;;;7.28;3.67;;;21.40;97.70;;;;;;5018009;28;20072;-63
2022/07/01 10:23:18;;;;;;;8.95;3.10;;;21.60;97.10;;;;;;5013447;28;20107;-64
2022/07/01 10:25:49;;;;;;;7.20;2.78;;;21.80;97.70;;;;;;5017951;28;20425;-63
2022/07/01 10:28:49;;;;;;;8.93;2.75;;;22.10;97.90;;;;;;5018715;28;20114;-64
2022/07/01 10:31:18;;;;;;;6.53;2.33;;;22.10;96.70;;;;;;5019560;28;20512;-63
2022/07/01 10:33:48;;;;;;;6.10;2.53;;;22.30;95.90;;;;;;5018822;28;20052;-63
2022/07/01 10:36:25;;;;;;;6.05;2.60;;;22.40;95.20;;;;;;5012205;28;20492;-63
2022/07/01 10:39:03;;;;;;;5.95;3.53;;;22.40;93.80;;;;;;5009906;28;20060;-63
2022/07/01 10:41:31;;;;;;;8.10;3.30;;;22.30;93.80;;;;;;5022116;28;20116;-64
2022/07/01 10:43:58;;;;;;;7.32;3.03;;;22.10;93.30;;;;;;5018831;28;20545;-64
2022/07/01 10:46:45;;;;;;;11.90;3.25;;;21.90;93.20;;;;;;5008293;28;20125;-64
2022/07/01 10:49:18;;;;;;;6.32;3.10;;;21.70;92.80;;;;;;4973254;28;20049;-63
2022/07/01 10:51:51;;;;;;;7.68;3.65;;;21.50;93.60;;;;;;5016794;28;20049;-64
2022/07/01 10:54:36;;;;;;;7.72;4.10;;;21.40;94.10;;;;;;4988537;28;20053;-64
2022/07/01 10:57:19;;;;;;;10.20;4.40;;;21.40;94.40;;;;;;5008059;28;20479;-63
2022/07/01 10:59:50;;;;;;;8.45;4.13;;;21.70;94.90;;;;;;5001378;28;20380;-63
2022/07/01 11:02:28;;;;;;;6.93;4.22;;;21.80;94.60;;;;;;5015062;28;20519;-63
2022/07/01 11:04:58;;;;;;;7.53;3.08;;;21.90;94.60;;;;;;5006730;28;20071;-61
2022/07/01 11:07:26;;;;;;;5.53;1.80;;;21.70;94.00;;;;;;5012592;28;20069;-62
2022/07/01 11:09:52;;;;;;;7.15;1.50;;;21.50;93.80;;;;;;5028365;28;20498;-61
2022/07/01 11:12:22;;;;;;;4.68;1.40;;;21.10;93.90;;;;;;5011694;28;20153;-61
2022/07/01 11:14:48;;;;;;;3.63;1.08;;;20.80;94.10;;;;;;5009889;28;20083;-60
2022/07/01 11:17:14;;;;;;;4.38;1.25;;;20.60;94.50;;;;;;5016820;28;20045;-61
2022/07/01 11:19:39;;;;;;;2.97;1.23;;;20.40;94.80;;;;;;5011653;28;20501;-61
2022/07/01 11:22:05;;;;;;;3.00;0.95;;;20.30;95.10;;;;;;5016380;28;20033;-62
2022/07/01 11:24:31;;;;;;;4.05;1.23;;;20.20;95.30;;;;;;5004324;28;23935;-60
2022/07/01 11:27:06;;;;;;;3.30;1.00;;;20.10;95.30;;;;;;5020408;28;20048;-61
2022/07/01 11:29:32;;;;;;;3.67;0.90;;;20.00;95.40;;;;;;5013813;28;20084;-62
2022/07/01 11:31:58;;;;;;;2.63;1.05;;;20.00;95.10;;;;;;5012767;28;20243;-62
2022/07/01 11:34:27;;;;;;;1.05;0.70;;;19.90;94.70;;;;;;5010437;28;20492;-61
2022/07/01 11:39:40;;;;;;;2.95;1.10;;;19.80;95.00;;;;;;5004980;28;20075;-61
2022/07/01 11:42:08;;;;;;;4.68;1.40;;;19.90;95.00;;;;;;5010368;28;20603;-61
2022/07/01 11:44:38;;;;;;;3.10;1.10;;;20.10;95.20;;;;;;5016533;28;22571;-62
2022/07/01 11:47:05;;;;;;;2.67;1.02;;;20.20;94.80;;;;;;5014123;28;20564;-61
2022/07/01 11:49:32;;;;;;;2.97;1.13;;;20.40;94.80;;;;;;5013199;28;20053;-61
2022/07/01 11:52:05;;;;;;;3.17;1.00;;;20.80;94.40;;;;;;5015319;28;20050;-61
2022/07/01 11:54:43;;;;;;;4.15;1.10;;;21.00;93.90;;;;;;5010455;28;20115;-62
2022/07/01 11:57:18;;;;;;;5.43;1.40;;;21.10;94.00;;;;;;5014789;28;20053;-61
2022/07/01 11:59:45;;;;;;;6.03;1.48;;;21.30;93.40;;;;;;5007714;28;20451;-61
2022/07/01 12:02:13;;;;;;;3.92;1.30;;;21.30;93.20;;;;;;5012354;28;20403;-59
2022/07/01 12:04:40;;;;;;;3.45;1.27;;;21.40;93.10;;;;;;5012065;28;20608;-61
2022/07/01 12:07:07;;;;;;;4.18;1.45;;;21.70;93.00;;;;;;5009483;28;20069;-61
2022/07/01 12:09:33;;;;;;;4.15;1.10;;;21.80;92.90;;;;;;5001150;28;20049;-58
2022/07/01 12:11:59;;;;;;;5.20;1.33;;;21.90;92.50;;;;;;5007077;28;25048;-59
2022/07/01 12:14:29;;;;;;;5.28;1.42;;;21.80;92.00;;;;;;5015660;28;20377;-58
2022/07/01 12:17:00;;;;;;;5.30;1.60;;;21.60;92.40;;;;;;5011395;28;20358;-57
2022/07/01 12:19:47;;;;;;;4.85;1.48;;;21.70;92.80;;;;;;4997195;28;20472;-57
2022/07/01 12:22:15;;;;;;;5.72;1.30;;;21.80;92.60;;;;;;5015678;28;20464;-58
2022/07/01 12:24:42;;;;;;;4.75;1.70;;;21.80;92.50;;;;;;5006874;28;20052;-58
2022/07/01 12:27:09;;;;;;;4.18;1.45;;;21.80;92.10;;;;;;5002284;28;20496;-58
2022/07/01 12:29:50;;;;;;;6.32;1.58;;;21.70;91.90;;;;;;5002873;28;20255;-58
2022/07/01 12:32:24;;;;;;;5.40;1.50;;;21.60;91.50;;;;;;5019251;28;20065;-57
2022/07/01 12:34:56;;;;;;;2.65;1.40;;;21.60;91.50;;;;;;5008456;28;20293;-58
2022/07/01 12:37:32;;;;;;;3.45;1.23;;;21.70;91.80;;;;;;5010664;28;20452;-59
2022/07/01 12:40:06;;;;;;;4.35;1.40;;;21.70;90.30;;;;;;4997381;28;20049;-57
2022/07/01 12:42:39;;;;;;;4.53;1.20;;;21.70;90.30;;;;;;5007759;28;20144;-58
2022/07/01 12:45:09;;;;;;;5.45;1.40;;;21.80;90.70;;;;;;4995358;28;20045;-58
2022/07/01 12:47:37;;;;;;;3.65;1.40;;;21.80;90.00;;;;;;5012661;28;20517;-58
2022/07/01 12:50:20;;;;;;;6.65;1.45;;;22.10;89.60;;;;;;5009328;28;20073;-58
2022/07/01 12:53:07;;;;;;;6.13;1.63;;;22.50;90.30;;;;;;5005624;28;20052;-58
2022/07/01 12:55:35;;;;;;;2.95;1.00;;;23.00;88.20;;;;;;5012150;28;20107;-60
2022/07/01 12:58:03;;;;;;;2.08;1.00;;;22.90;85.90;;;;;;5006176;28;20050;-59
2022/07/01 13:00:30;;;;;;;3.63;1.00;;;22.90;84.40;;;;;;5012851;28;20049;-59